createdAt,value
2023-01-01T00:02:10.962Z,70.11
2023-01-01T00:04:37.829Z,70.04
2023-01-01T00:07:04.718Z,70.03
2023-01-01T00:09:50.121Z,69.70
2023-01-01T00:12:16.775Z,69.60
2023-01-01T00:14:44.599Z,69.51
2023-01-01T00:17:11.506Z,69.87
2023-01-01T00:19:38.926Z,69.79
2023-01-01T00:22:27.808Z,69.50
2023-01-01T00:24:52.227Z,69.55
2023-01-01T00:27:19.095Z,69.60
2023-01-01T00:29:46.048Z,69.82
2023-01-01T00:32:17.618Z,70.12
2023-01-01T00:34:47.495Z,69.99
2023-01-01T00:37:15.668Z,70.19
2023-01-01T00:39:42.496Z,70.71
2023-01-01T00:42:09.070Z,70.79
2023-01-01T00:44:35.678Z,70.64
2023-01-01T00:47:02.433Z,69.97
2023-01-01T00:49:29.500Z,70.02
2023-01-01T00:51:56.346Z,71.06
2023-01-01T00:54:23.040Z,71.19
2023-01-01T00:56:49.648Z,71.53
2023-01-01T00:59:16.260Z,71.44
2023-01-01T01:01:42.998Z,71.74
2023-01-01T01:04:09.654Z,71.61
2023-01-01T01:06:36.396Z,72.12
2023-01-01T01:09:03.433Z,71.51
2023-01-01T01:11:30.405Z,71.43
2023-01-01T01:13:57.385Z,72.44
2023-01-01T01:16:30.843Z,72.20
2023-01-01T01:19:03.444Z,72.04
2023-01-01T01:21:31.635Z,72.17
2023-01-01T01:24:00.184Z,72.60
2023-01-01T01:26:29.294Z,72.93
2023-01-01T01:28:56.295Z,73.01
2023-01-01T01:31:24.518Z,73.35
2023-01-01T01:33:51.336Z,74.13
2023-01-01T01:36:19.059Z,73.82
2023-01-01T01:38:46.232Z,74.00
2023-01-01T01:41:26.716Z,74.52
2023-01-01T01:44:00.659Z,74.67
2023-01-01T01:46:37.575Z,75.38
2023-01-01T01:49:16.225Z,75.06
2023-01-01T01:51:43.329Z,74.96
2023-01-01T01:54:13.199Z,74.89
2023-01-01T01:57:02.500Z,75.21
2023-01-01T01:59:34.117Z,75.78
2023-01-01T02:02:02.062Z,75.98
2023-01-01T02:04:28.939Z,75.79
2023-01-01T02:06:56.260Z,75.37
2023-01-01T02:09:23.819Z,74.85
2023-01-01T02:11:50.739Z,74.96
2023-01-01T02:14:17.419Z,74.97
2023-01-01T02:16:50.382Z,74.22
2023-01-01T02:19:56.947Z,74.20
2023-01-01T02:23:02.193Z,74.02
2023-01-01T02:25:49.762Z,73.84
2023-01-01T02:28:50.269Z,73.30
2023-01-01T02:31:23.385Z,74.07
2023-01-01T02:33:53.736Z,73.87
2023-01-01T02:36:20.761Z,74.17
2023-01-01T02:38:50.388Z,74.43
2023-01-01T02:41:36.819Z,74.69
2023-01-01T02:46:34.428Z,74.90
2023-01-01T02:49:07.974Z,74.88
2023-01-01T02:52:16.656Z,75.89
2023-01-01T02:55:07.765Z,75.86
2023-01-01T02:57:39.594Z,75.94
2023-01-01T03:00:32.461Z,76.14
2023-01-01T03:03:15.138Z,76.05
2023-01-01T03:06:24.285Z,76.17
2023-01-01T03:09:41.996Z,75.49
2023-01-01T03:12:44.948Z,74.67
2023-01-01T03:15:28.019Z,74.66
2023-01-01T03:18:18.961Z,74.80
2023-01-01T03:20:49.685Z,75.40
2023-01-01T03:23:22.189Z,75.10
2023-01-01T03:25:51.324Z,75.30
2023-01-01T03:28:25.385Z,75.21
2023-01-01T03:30:53.690Z,75.22
2023-01-01T03:33:33.422Z,75.69
2023-01-01T03:36:05.318Z,75.92
2023-01-01T03:38:51.305Z,76.46
2023-01-01T03:41:35.030Z,76.37
2023-01-01T03:44:09.461Z,76.50
2023-01-01T03:46:37.437Z,76.94
2023-01-01T03:49:07.335Z,77.62
2023-01-01T03:52:13.193Z,77.12
2023-01-01T03:54:58.317Z,77.97
2023-01-01T03:57:45.762Z,77.95
2023-01-01T04:00:18.949Z,77.96
2023-01-01T04:03:17.217Z,78.21
2023-01-01T04:05:44.641Z,77.55
2023-01-01T04:08:12.394Z,77.53
2023-01-01T04:10:43.195Z,77.94
2023-01-01T04:13:10.037Z,78.40
2023-01-01T04:15:37.475Z,77.07
2023-01-01T04:18:04.858Z,77.52
2023-01-01T04:20:31.816Z,77.10
2023-01-01T04:22:59.476Z,76.97
2023-01-01T04:25:27.789Z,76.87
2023-01-01T04:27:54.747Z,77.34
2023-01-01T04:30:21.991Z,77.01
2023-01-01T04:32:48.756Z,77.81
2023-01-01T04:35:16.050Z,77.30
2023-01-01T04:37:44.580Z,77.69
2023-01-01T04:40:12.725Z,77.48
2023-01-01T04:42:39.762Z,77.24
2023-01-01T04:45:07.520Z,77.05
2023-01-01T04:47:35.204Z,77.23
2023-01-01T04:50:01.986Z,77.45
2023-01-01T04:52:28.824Z,77.73
2023-01-01T04:54:55.965Z,77.71
2023-01-01T04:57:22.837Z,77.44
2023-01-01T04:59:50.085Z,77.38
2023-01-01T05:02:17.056Z,77.51
2023-01-01T05:04:44.064Z,76.90
2023-01-01T05:07:10.872Z,77.55
2023-01-01T05:09:37.925Z,77.16
2023-01-01T05:12:05.112Z,77.31
2023-01-01T05:14:31.911Z,77.89
2023-01-01T05:16:58.709Z,77.55
2023-01-01T05:19:25.847Z,77.75
2023-01-01T05:21:54.580Z,77.98
2023-01-01T05:24:21.908Z,78.03
2023-01-01T05:26:48.875Z,78.17
2023-01-01T05:29:17.265Z,78.14
2023-01-01T05:31:45.224Z,78.20
2023-01-01T05:34:12.455Z,78.37
2023-01-01T05:36:39.606Z,78.44
2023-01-01T05:39:08.161Z,78.57
2023-01-01T05:41:36.864Z,78.43
2023-01-01T05:44:07.467Z,78.14
2023-01-01T05:46:34.605Z,78.53
2023-01-01T05:49:01.410Z,78.73
2023-01-01T05:51:30.026Z,78.63
2023-01-01T05:53:58.382Z,78.81
2023-01-01T05:56:26.544Z,78.77
2023-01-01T05:58:54.438Z,79.10
2023-01-01T06:01:26.594Z,79.54
2023-01-01T06:03:55.065Z,79.23
2023-01-01T06:06:29.093Z,78.95
2023-01-01T06:08:57.955Z,78.73
2023-01-01T06:11:25.903Z,78.85
2023-01-01T06:13:57.871Z,78.25
2023-01-01T06:16:24.984Z,78.14
2023-01-01T06:18:52.031Z,77.96
2023-01-01T06:21:21.580Z,77.46
2023-01-01T06:23:48.325Z,77.54
2023-01-01T06:26:20.552Z,77.18
2023-01-01T06:28:47.856Z,77.44
2023-01-01T06:31:17.696Z,77.25
2023-01-01T06:33:44.949Z,76.70
2023-01-01T06:36:14.346Z,76.60
2023-01-01T06:38:44.085Z,75.96
2023-01-01T06:41:13.296Z,75.97
2023-01-01T06:43:40.604Z,76.56
2023-01-01T06:46:21.053Z,76.37
2023-01-01T06:48:49.999Z,76.80
2023-01-01T06:51:20.469Z,76.48
2023-01-01T06:53:48.859Z,76.24
2023-01-01T06:56:17.022Z,76.14
2023-01-01T06:58:44.606Z,75.88
2023-01-01T07:01:23.585Z,76.00
2023-01-01T07:03:52.919Z,76.17
2023-01-01T07:06:20.997Z,76.36
2023-01-01T07:08:48.606Z,76.22
2023-01-01T07:11:16.208Z,75.76
2023-01-01T07:13:43.176Z,75.76
2023-01-01T07:16:13.377Z,75.43
2023-01-01T07:18:41.634Z,75.41
2023-01-01T07:21:29.241Z,75.28
2023-01-01T07:24:01.294Z,75.41
2023-01-01T07:26:29.702Z,75.67
2023-01-01T07:29:06.338Z,75.89
2023-01-01T07:31:34.671Z,75.52
2023-01-01T07:34:02.073Z,75.70
2023-01-01T07:36:31.106Z,75.45
2023-01-01T07:39:00.099Z,75.45
2023-01-01T07:41:27.207Z,74.90
2023-01-01T07:43:54.913Z,75.12
2023-01-01T07:46:22.046Z,75.28
2023-01-01T07:48:50.475Z,75.61
2023-01-01T07:51:19.171Z,76.00
2023-01-01T07:53:46.314Z,75.66
2023-01-01T07:56:13.789Z,75.83
2023-01-01T07:58:42.072Z,76.01
2023-01-01T08:01:13.659Z,75.76
2023-01-01T08:03:40.805Z,75.59
2023-01-01T08:06:12.919Z,75.76
2023-01-01T08:08:40.006Z,75.23
2023-01-01T08:11:08.957Z,75.50
2023-01-01T08:13:35.986Z,75.63
2023-01-01T08:16:04.327Z,75.46
2023-01-01T08:18:31.048Z,75.36
2023-01-01T08:20:58.197Z,74.97
2023-01-01T08:23:26.642Z,74.78
2023-01-01T08:25:53.984Z,75.56
2023-01-01T08:28:21.757Z,74.77
2023-01-01T08:30:48.403Z,75.36
2023-01-01T08:33:15.153Z,75.05
2023-01-01T08:35:42.947Z,75.06
2023-01-01T08:38:13.183Z,75.00
2023-01-01T08:40:41.015Z,74.95
2023-01-01T08:43:08.229Z,75.21
2023-01-01T08:45:35.269Z,75.26
2023-01-01T08:48:02.002Z,75.18
2023-01-01T08:50:29.888Z,75.71
2023-01-01T08:52:59.771Z,75.60
2023-01-01T08:55:26.546Z,75.03
2023-01-01T08:57:53.495Z,75.04
2023-01-01T09:00:20.447Z,74.90
2023-01-01T09:02:47.768Z,75.12
2023-01-01T09:05:15.333Z,74.86
2023-01-01T09:07:42.965Z,74.80
2023-01-01T09:10:09.765Z,74.30
2023-01-01T09:12:36.612Z,74.23
2023-01-01T09:15:05.164Z,74.20
2023-01-01T09:17:32.111Z,74.85
2023-01-01T09:19:59.371Z,74.55
2023-01-01T09:22:26.182Z,74.54
2023-01-01T09:24:53.400Z,74.74
2023-01-01T09:27:22.125Z,74.95
2023-01-01T09:29:49.965Z,75.09
2023-01-01T09:32:18.921Z,74.91
2023-01-01T09:34:52.163Z,74.75
2023-01-01T09:37:20.426Z,74.98
2023-01-01T09:39:48.081Z,74.60
2023-01-01T09:42:44.135Z,74.77
2023-01-01T09:45:16.353Z,75.10
2023-01-01T09:47:47.314Z,74.73
2023-01-01T09:50:22.303Z,75.27
2023-01-01T09:52:56.589Z,75.63
2023-01-01T09:55:53.366Z,75.72
2023-01-01T09:58:25.605Z,75.98
2023-01-01T10:00:55.767Z,76.48
2023-01-01T10:03:45.769Z,76.29
2023-01-01T10:06:29.347Z,76.44
2023-01-01T10:09:43.819Z,77.13
2023-01-01T10:12:32.274Z,77.21
2023-01-01T10:15:08.915Z,77.08
2023-01-01T10:17:44.205Z,77.12
2023-01-01T10:20:27.097Z,76.86
2023-01-01T10:22:58.804Z,77.63
2023-01-01T10:25:28.648Z,77.73
2023-01-01T10:28:00.025Z,77.46
2023-01-01T10:30:28.627Z,77.69
2023-01-01T10:32:56.875Z,78.04
2023-01-01T10:35:36.732Z,77.58
2023-01-01T10:38:04.711Z,77.95
2023-01-01T10:40:32.271Z,78.00
2023-01-01T10:43:01.920Z,77.12
2023-01-01T10:45:36.101Z,77.82
2023-01-01T10:48:10.829Z,77.64
2023-01-01T10:50:47.444Z,78.11
2023-01-01T10:53:42.053Z,77.88
2023-01-01T10:56:22.432Z,77.97
2023-01-01T10:58:52.052Z,78.22
2023-01-01T11:01:29.572Z,78.04
2023-01-01T11:04:28.860Z,78.06
2023-01-01T11:06:55.474Z,77.83
2023-01-01T11:09:37.313Z,78.30
2023-01-01T11:12:15.252Z,78.00
2023-01-01T11:14:54.482Z,78.70
2023-01-01T11:17:33.044Z,79.14
2023-01-01T11:20:02.530Z,78.58
2023-01-01T11:22:49.279Z,78.49
2023-01-01T11:25:26.812Z,78.90
2023-01-01T11:28:22.156Z,79.26
2023-01-01T11:31:19.342Z,78.66
2023-01-01T11:33:48.881Z,78.67
2023-01-01T11:36:42.215Z,78.72
2023-01-01T11:39:29.194Z,78.75
2023-01-01T11:41:57.402Z,78.76
2023-01-01T11:44:47.975Z,78.61
2023-01-01T11:47:27.963Z,79.51
2023-01-01T11:49:59.053Z,78.71
2023-01-01T11:52:37.852Z,78.77
2023-01-01T11:55:34.082Z,78.85
2023-01-01T11:58:06.681Z,79.28
2023-01-01T12:00:36.158Z,78.69
2023-01-01T12:03:50.434Z,79.03
2023-01-01T12:06:41.967Z,78.69
2023-01-01T12:09:55.206Z,78.79
2023-01-01T12:12:44.499Z,79.13
2023-01-01T12:15:17.404Z,79.04
2023-01-01T12:17:47.865Z,78.89
2023-01-01T12:20:25.897Z,79.33
2023-01-01T12:22:55.808Z,78.83
2023-01-01T12:25:24.205Z,79.07
2023-01-01T12:28:55.680Z,79.16
2023-01-01T12:31:28.733Z,79.30
2023-01-01T12:34:14.136Z,79.51
2023-01-01T12:37:01.113Z,79.52
2023-01-01T12:39:59.487Z,79.20
2023-01-01T12:42:41.685Z,79.08
2023-01-01T12:45:58.528Z,79.37
2023-01-01T12:48:49.270Z,79.44
2023-01-01T12:51:51.391Z,79.31
2023-01-01T12:55:03.740Z,78.94
2023-01-01T12:57:41.920Z,79.81
2023-01-01T13:00:16.481Z,79.62
2023-01-01T13:02:56.168Z,79.80
2023-01-01T13:05:27.726Z,79.56
2023-01-01T13:08:01.457Z,79.38
2023-01-01T13:10:34.507Z,79.48
2023-01-01T13:13:02.300Z,79.70
2023-01-01T13:15:58.870Z,79.34
2023-01-01T13:18:29.322Z,79.29
2023-01-01T13:20:59.646Z,79.29
2023-01-01T13:23:43.048Z,79.49
2023-01-01T13:26:21.016Z,79.22
2023-01-01T13:29:23.571Z,79.77
2023-01-01T13:31:59.891Z,79.68
2023-01-01T13:35:01.548Z,79.94
2023-01-01T13:37:30.654Z,79.83
2023-01-01T13:40:02.479Z,79.52
2023-01-01T13:43:06.862Z,79.58
2023-01-01T13:46:10.964Z,79.59
2023-01-01T13:48:57.564Z,79.43
2023-01-01T13:52:04.709Z,79.21
2023-01-01T13:54:58.963Z,79.66
2023-01-01T13:57:54.707Z,79.64
2023-01-01T14:00:23.895Z,79.95
2023-01-01T14:03:03.150Z,80.36
2023-01-01T14:05:39.947Z,80.03
2023-01-01T14:08:12.999Z,80.50
2023-01-01T14:10:40.733Z,80.84
2023-01-01T14:13:11.618Z,81.13
2023-01-01T14:15:41.337Z,82.02
2023-01-01T14:18:16.217Z,81.64
2023-01-01T14:20:46.305Z,81.68
2023-01-01T14:23:31.075Z,82.17
2023-01-01T14:26:03.685Z,82.39
2023-01-01T14:28:32.783Z,82.58
2023-01-01T14:31:08.642Z,82.83
2023-01-01T14:33:37.957Z,82.44
2023-01-01T14:36:06.804Z,82.63
2023-01-01T14:38:35.435Z,82.41
2023-01-01T14:41:16.734Z,82.88
2023-01-01T14:43:46.463Z,82.31
2023-01-01T14:46:17.112Z,82.47
2023-01-01T14:48:46.741Z,82.19
2023-01-01T14:51:26.340Z,82.58
2023-01-01T14:53:55.654Z,82.15
2023-01-01T14:56:24.838Z,82.27
2023-01-01T14:58:52.362Z,82.45
2023-01-01T15:01:25.071Z,82.55
2023-01-01T15:04:07.949Z,82.39
2023-01-01T15:06:41.019Z,82.33
2023-01-01T15:09:14.152Z,82.12
2023-01-01T15:11:41.373Z,81.94
2023-01-01T15:14:32.621Z,81.87
2023-01-01T15:17:07.771Z,81.84
2023-01-01T15:19:40.729Z,82.43
2023-01-01T15:22:12.236Z,82.54
2023-01-01T15:24:40.877Z,82.75
2023-01-01T15:27:17.255Z,82.70
2023-01-01T15:29:47.500Z,83.03
2023-01-01T15:32:16.253Z,82.30
2023-01-01T15:34:50.225Z,82.50
2023-01-01T15:37:24.173Z,82.60
2023-01-01T15:39:53.364Z,82.25
2023-01-01T15:42:37.891Z,82.51
2023-01-01T15:45:46.576Z,82.59
2023-01-01T15:48:22.658Z,82.53
2023-01-01T15:51:05.333Z,82.97
2023-01-01T15:53:55.101Z,82.19
2023-01-01T15:56:25.764Z,82.19
2023-01-01T15:59:03.783Z,82.44
2023-01-01T16:01:36.417Z,82.66
2023-01-01T16:04:09.371Z,82.13
2023-01-01T16:07:04.919Z,82.15
2023-01-01T16:09:36.260Z,82.57
2023-01-01T16:12:03.556Z,81.84
2023-01-01T16:14:31.367Z,82.93
2023-01-01T16:17:01.244Z,82.50
2023-01-01T16:19:30.229Z,82.78
2023-01-01T16:21:57.232Z,83.10
2023-01-01T16:24:28.345Z,83.20
2023-01-01T16:26:55.099Z,83.30
2023-01-01T16:29:22.457Z,83.20
2023-01-01T16:31:51.256Z,82.30
2023-01-01T16:34:18.628Z,82.79
2023-01-01T16:36:45.824Z,83.51
2023-01-01T16:39:12.898Z,83.53
2023-01-01T16:41:42.098Z,83.29
2023-01-01T16:44:13.381Z,83.59
2023-01-01T16:46:40.853Z,84.10
2023-01-01T16:49:07.496Z,84.57
2023-01-01T16:51:35.297Z,83.69
2023-01-01T16:54:02.132Z,84.02
2023-01-01T16:56:29.413Z,84.20
2023-01-01T16:59:02.667Z,84.30
2023-01-01T17:01:30.215Z,84.82
2023-01-01T17:03:57.383Z,85.28
2023-01-01T17:06:24.456Z,84.87
2023-01-01T17:08:51.269Z,85.28
2023-01-01T17:11:18.812Z,85.40
2023-01-01T17:13:47.442Z,85.82
2023-01-01T17:16:23.267Z,86.14
2023-01-01T17:21:42.387Z,85.62
2023-01-01T17:24:09.263Z,84.92
2023-01-01T17:26:36.018Z,84.98
2023-01-01T17:29:03.960Z,85.27
2023-01-01T17:31:31.343Z,86.38
2023-01-01T17:33:59.185Z,86.24
2023-01-01T17:36:28.961Z,87.41
2023-01-01T17:38:56.262Z,86.99
2023-01-01T17:41:23.731Z,87.73
2023-01-01T17:43:51.919Z,88.04
2023-01-01T17:46:23.989Z,88.14
2023-01-01T17:48:52.234Z,87.93
2023-01-01T17:51:19.671Z,88.63
2023-01-01T17:53:47.166Z,89.31
2023-01-01T17:56:15.471Z,89.62
2023-01-01T17:58:44.022Z,89.96
2023-01-01T18:01:23.559Z,90.39
2023-01-01T18:03:56.553Z,90.72
2023-01-01T18:06:24.344Z,90.60
2023-01-01T18:08:59.327Z,90.87
2023-01-01T18:11:29.028Z,91.83
2023-01-01T18:13:57.273Z,92.30
2023-01-01T18:16:24.529Z,92.33
2023-01-01T18:18:55.875Z,92.76
2023-01-01T18:21:23.878Z,93.14
2023-01-01T18:23:52.358Z,94.16
2023-01-01T18:26:20.143Z,94.18
2023-01-01T18:28:52.471Z,94.77
2023-01-01T18:31:19.783Z,94.74
2023-01-01T18:33:47.881Z,95.18
2023-01-01T18:36:31.547Z,95.12
2023-01-01T18:39:35.310Z,96.09
2023-01-01T18:42:29.477Z,96.50
2023-01-01T18:45:03.467Z,96.28
2023-01-01T18:47:31.068Z,96.66
2023-01-01T18:50:25.951Z,97.42
2023-01-01T18:52:54.990Z,96.70
2023-01-01T18:55:27.046Z,94.20
2023-01-01T18:57:59.472Z,93.73
2023-01-01T19:00:28.096Z,94.30
2023-01-01T19:03:06.457Z,94.82
2023-01-01T19:05:35.069Z,95.78
2023-01-01T19:08:16.055Z,96.99
2023-01-01T19:11:02.291Z,97.58
2023-01-01T19:13:42.952Z,96.76
2023-01-01T19:16:33.466Z,96.50
2023-01-01T19:19:07.266Z,96.81
2023-01-01T19:21:34.995Z,96.97
2023-01-01T19:24:02.699Z,96.76
2023-01-01T19:26:41.366Z,95.83
2023-01-01T19:29:23.193Z,97.06
2023-01-01T19:31:52.635Z,97.74
2023-01-01T19:34:20.110Z,97.33
2023-01-01T19:36:46.958Z,98.14
2023-01-01T19:39:14.233Z,99.02
2023-01-01T19:41:40.928Z,99.47
2023-01-01T19:44:10.313Z,98.88
2023-01-01T19:46:37.390Z,99.22
2023-01-01T19:49:04.761Z,98.96
2023-01-01T19:51:35.064Z,98.53
2023-01-01T19:54:02.431Z,99.39
2023-01-01T19:56:30.060Z,99.31
2023-01-01T19:58:56.862Z,99.28
2023-01-01T20:01:24.273Z,100.00
2023-01-01T20:03:54.617Z,100.00
2023-01-01T20:06:23.178Z,100.00
2023-01-01T20:08:50.036Z,100.00
2023-01-01T20:11:17.260Z,100.00
2023-01-01T20:13:45.298Z,100.00
2023-01-01T20:16:11.997Z,100.00
2023-01-01T20:18:39.117Z,100.00
2023-01-01T20:21:26.933Z,100.00
2023-01-01T20:23:55.044Z,100.00
2023-01-01T20:26:26.127Z,100.00
2023-01-01T20:29:13.704Z,99.96
2023-01-01T20:31:40.756Z,99.79
2023-01-01T20:34:07.699Z,100.00
2023-01-01T20:36:57.678Z,100.00
2023-01-01T20:39:26.297Z,100.00
2023-01-01T20:41:53.434Z,100.00
2023-01-01T20:44:20.307Z,100.00
2023-01-01T20:46:48.618Z,100.00
2023-01-01T20:49:19.420Z,100.00
2023-01-01T20:51:48.144Z,100.00
2023-01-01T20:54:19.863Z,100.00
2023-01-01T20:56:47.501Z,100.00
2023-01-01T20:59:34.773Z,100.00
2023-01-01T21:02:04.422Z,100.00
2023-01-01T21:04:32.459Z,100.00
2023-01-01T21:07:02.712Z,100.00
2023-01-01T21:09:30.044Z,100.00
2023-01-01T21:11:57.735Z,100.00
2023-01-01T21:14:26.122Z,100.00
2023-01-01T21:16:53.018Z,100.00
2023-01-01T21:19:26.034Z,100.00
2023-01-01T21:21:55.795Z,100.00
2023-01-01T21:24:29.822Z,100.00
2023-01-01T21:27:09.189Z,100.00
2023-01-01T21:29:36.426Z,100.00
2023-01-01T21:32:28.368Z,100.00
2023-01-01T21:34:55.725Z,100.00
2023-01-01T21:37:51.388Z,100.00
2023-01-01T21:40:35.808Z,100.00
2023-01-01T21:43:25.777Z,100.00
2023-01-01T21:45:53.234Z,100.00
2023-01-01T21:48:23.978Z,100.00
2023-01-01T21:50:52.487Z,100.00
2023-01-01T21:53:23.578Z,100.00
2023-01-01T21:55:52.910Z,100.00
2023-01-01T21:58:43.930Z,100.00
2023-01-01T22:01:21.766Z,100.00
2023-01-01T22:03:59.151Z,100.00
2023-01-01T22:06:35.362Z,100.00
2023-01-01T22:09:02.557Z,100.00
2023-01-01T22:11:29.910Z,100.00
2023-01-01T22:13:56.840Z,100.00
2023-01-01T22:16:29.629Z,100.00
2023-01-01T22:18:57.545Z,100.00
2023-01-01T22:21:24.731Z,100.00
2023-01-01T22:23:56.381Z,100.00
2023-01-01T22:26:25.647Z,100.00
2023-01-01T22:29:00.207Z,100.00
2023-01-01T22:31:30.638Z,100.00
2023-01-01T22:34:04.019Z,100.00
2023-01-01T22:36:35.294Z,100.00
2023-01-01T22:39:04.127Z,100.00
2023-01-01T22:41:31.156Z,100.00
2023-01-01T22:44:02.384Z,100.00
2023-01-01T22:46:34.252Z,100.00
2023-01-01T22:49:07.881Z,100.00
2023-01-01T22:51:40.701Z,100.00
2023-01-01T22:54:07.604Z,100.00
2023-01-01T22:56:34.930Z,100.00
2023-01-01T22:59:01.595Z,100.00
2023-01-01T23:01:28.680Z,100.00
2023-01-01T23:03:56.108Z,100.00
2023-01-01T23:06:22.907Z,100.00
2023-01-01T23:08:50.871Z,100.00
2023-01-01T23:11:18.455Z,100.00
2023-01-01T23:14:08.129Z,100.00
2023-01-01T23:16:35.300Z,100.00
2023-01-01T23:19:02.499Z,100.00
2023-01-01T23:21:30.206Z,100.00
2023-01-01T23:23:58.060Z,100.00
2023-01-01T23:26:26.305Z,100.00
2023-01-01T23:28:54.978Z,100.00
2023-01-01T23:31:25.590Z,100.00
2023-01-01T23:33:54.729Z,100.00
2023-01-01T23:36:23.451Z,100.00
2023-01-01T23:38:50.574Z,100.00
2023-01-01T23:41:17.221Z,100.00
2023-01-01T23:43:44.510Z,100.00
2023-01-01T23:46:15.327Z,100.00
2023-01-01T23:48:45.852Z,100.00
2023-01-01T23:51:12.632Z,100.00
2023-01-01T23:53:39.506Z,100.00
2023-01-01T23:56:06.634Z,100.00
2023-01-01T23:58:33.298Z,100.00
